createdAt,value
2022-11-22T00:00:48.610Z,7.31
2022-11-22T00:03:15.120Z,7.17
2022-11-22T00:05:41.676Z,7.31
2022-11-22T00:08:08.369Z,7.31
2022-11-22T00:10:35.263Z,7.23
2022-11-22T00:13:02.343Z,7.20
2022-11-22T00:15:29.731Z,7.07
2022-11-22T00:17:56.531Z,6.95
2022-11-22T00:20:26.170Z,6.76
2022-11-22T00:22:58.262Z,6.79
2022-11-22T00:25:24.800Z,6.63
2022-11-22T00:27:51.631Z,6.62
2022-11-22T00:30:18.576Z,6.59
2022-11-22T00:32:45.207Z,6.80
2022-11-22T00:35:12.285Z,6.77
2022-11-22T00:37:38.817Z,6.92
2022-11-22T00:40:06.680Z,6.71
2022-11-22T00:42:33.172Z,6.73
2022-11-22T00:44:59.659Z,6.64
2022-11-22T00:47:26.137Z,6.61
2022-11-22T00:49:54.776Z,6.62
2022-11-22T00:52:21.294Z,6.85
2022-11-22T00:54:54.268Z,6.55
2022-11-22T00:57:21.534Z,6.61
2022-11-22T00:59:48.036Z,6.63
2022-11-22T01:02:14.563Z,6.46
2022-11-22T01:04:41.140Z,6.79
2022-11-22T01:07:07.741Z,6.77
2022-11-22T01:09:34.386Z,6.87
2022-11-22T01:12:00.939Z,6.79
2022-11-22T01:14:27.486Z,6.68
2022-11-22T01:16:56.094Z,6.55
2022-11-22T01:19:22.670Z,6.59
2022-11-22T01:21:49.169Z,6.52
2022-11-22T01:24:15.680Z,6.54
2022-11-22T01:26:42.221Z,6.46
2022-11-22T01:29:08.765Z,6.32
2022-11-22T01:31:35.393Z,6.47
2022-11-22T01:34:05.424Z,6.47
2022-11-22T01:36:32.096Z,6.32
2022-11-22T01:38:58.585Z,6.26
2022-11-22T01:41:27.497Z,6.23
2022-11-22T01:43:53.986Z,6.13
2022-11-22T01:46:39.640Z,6.23
2022-11-22T01:49:11.643Z,6.18
2022-11-22T01:51:44.149Z,6.34
2022-11-22T01:54:17.409Z,6.19
2022-11-22T01:56:50.359Z,6.32
2022-11-22T01:59:21.848Z,6.42
2022-11-22T02:01:48.913Z,6.53
2022-11-22T02:04:18.544Z,6.50
2022-11-22T02:07:08.750Z,6.63
2022-11-22T02:09:37.564Z,6.49
2022-11-22T02:12:06.535Z,6.36
2022-11-22T02:14:34.678Z,6.51
2022-11-22T02:17:01.169Z,6.54
2022-11-22T02:19:33.276Z,6.56
2022-11-22T02:22:14.061Z,6.47
2022-11-22T02:24:48.762Z,6.31
2022-11-22T02:27:15.300Z,6.36
2022-11-22T02:29:42.594Z,6.25
2022-11-22T02:32:09.090Z,6.02
2022-11-22T02:34:50.100Z,5.96
2022-11-22T02:37:21.997Z,6.05
2022-11-22T02:39:53.124Z,5.88
2022-11-22T02:42:20.137Z,5.88
2022-11-22T02:44:46.672Z,5.89
2022-11-22T02:47:13.226Z,5.78
2022-11-22T02:49:39.766Z,5.77
2022-11-22T02:52:06.382Z,5.68
2022-11-22T02:54:32.909Z,5.91
2022-11-22T02:57:02.996Z,5.87
2022-11-22T02:59:32.064Z,5.74
2022-11-22T03:02:03.065Z,5.79
2022-11-22T03:04:32.410Z,5.83
2022-11-22T03:07:02.139Z,5.90
2022-11-22T03:09:29.663Z,5.85
2022-11-22T03:11:56.750Z,5.74
2022-11-22T03:14:23.569Z,5.85
2022-11-22T03:16:50.186Z,5.82
2022-11-22T03:19:17.199Z,5.82
2022-11-22T03:21:44.251Z,5.73
2022-11-22T03:24:11.294Z,5.75
2022-11-22T03:26:38.530Z,5.53
2022-11-22T03:29:05.338Z,5.77
2022-11-22T03:31:36.544Z,5.73
2022-11-22T03:34:06.225Z,5.50
2022-11-22T03:36:34.826Z,5.70
2022-11-22T03:39:04.460Z,5.59
2022-11-22T03:41:30.956Z,5.57
2022-11-22T03:43:57.454Z,5.58
2022-11-22T03:46:24.253Z,5.71
2022-11-22T03:48:50.769Z,5.66
2022-11-22T03:51:17.486Z,5.59
2022-11-22T03:53:44.066Z,5.51
2022-11-22T03:56:10.597Z,5.56
2022-11-22T03:58:37.158Z,5.76
2022-11-22T04:01:06.447Z,5.82
2022-11-22T04:03:35.387Z,5.63
2022-11-22T04:06:01.914Z,5.68
2022-11-22T04:08:28.439Z,5.46
2022-11-22T04:10:55.012Z,5.54
2022-11-22T04:13:21.703Z,5.62
2022-11-22T04:15:48.174Z,5.51
2022-11-22T04:18:15.053Z,5.51
2022-11-22T04:21:00.404Z,5.59
2022-11-22T04:23:33.531Z,5.58
2022-11-22T04:26:00.469Z,5.57
2022-11-22T04:28:46.986Z,5.48
2022-11-22T04:31:32.683Z,5.63
2022-11-22T04:33:59.170Z,5.47
2022-11-22T04:36:25.663Z,5.43
2022-11-22T04:38:52.242Z,5.47
2022-11-22T04:41:18.748Z,5.41
2022-11-22T04:44:03.736Z,5.45
2022-11-22T04:46:31.457Z,5.35
2022-11-22T04:48:58.110Z,5.42
2022-11-22T04:51:43.005Z,5.34
2022-11-22T04:54:09.590Z,5.40
2022-11-22T04:56:36.958Z,5.34
2022-11-22T04:59:03.530Z,5.39
2022-11-22T05:01:30.117Z,5.39
2022-11-22T05:03:56.728Z,5.56
2022-11-22T05:06:23.487Z,5.38
2022-11-22T05:08:49.944Z,5.31
2022-11-22T05:11:16.502Z,5.41
2022-11-22T05:13:43.179Z,5.35
2022-11-22T05:16:14.224Z,5.47
2022-11-22T05:18:41.284Z,5.41
2022-11-22T05:21:13.617Z,5.31
2022-11-22T05:23:55.217Z,5.32
2022-11-22T05:26:23.575Z,5.32
2022-11-22T05:28:50.391Z,5.16
2022-11-22T05:31:23.154Z,5.23
2022-11-22T05:33:52.047Z,5.24
2022-11-22T05:36:19.337Z,5.08
2022-11-22T05:38:45.818Z,5.23
2022-11-22T05:41:13.921Z,5.28
2022-11-22T05:43:43.825Z,5.29
2022-11-22T05:46:23.811Z,5.47
2022-11-22T05:48:52.254Z,5.35
2022-11-22T05:51:20.799Z,5.27
2022-11-22T05:53:47.621Z,5.24
2022-11-22T05:56:16.631Z,5.27
2022-11-22T05:58:43.495Z,5.16
2022-11-22T06:01:19.683Z,5.24
2022-11-22T06:03:47.157Z,5.40
2022-11-22T06:06:14.048Z,5.39
2022-11-22T06:08:46.901Z,5.37
2022-11-22T06:11:15.762Z,5.42
2022-11-22T06:13:46.756Z,5.43
2022-11-22T06:16:14.537Z,5.34
2022-11-22T06:18:44.983Z,5.55
2022-11-22T06:21:18.375Z,5.47
2022-11-22T06:23:45.468Z,5.45
2022-11-22T06:26:17.203Z,5.34
2022-11-22T06:28:44.777Z,5.39
2022-11-22T06:31:20.649Z,5.35
2022-11-22T06:33:47.790Z,5.32
2022-11-22T06:36:16.773Z,5.33
2022-11-22T06:38:44.889Z,5.47
2022-11-22T06:41:14.581Z,5.36
2022-11-22T06:43:48.222Z,5.37
2022-11-22T06:46:16.738Z,5.39
2022-11-22T06:48:47.181Z,5.40
2022-11-22T06:51:19.355Z,5.22
2022-11-22T06:53:48.556Z,5.32
2022-11-22T06:56:23.241Z,5.34
2022-11-22T06:58:51.128Z,5.30
2022-11-22T07:01:23.436Z,5.24
2022-11-22T07:03:50.737Z,5.16
2022-11-22T07:06:19.466Z,5.23
2022-11-22T07:08:46.728Z,5.04
2022-11-22T07:11:19.529Z,5.12
2022-11-22T07:13:46.903Z,5.13
2022-11-22T07:16:19.056Z,5.19
2022-11-22T07:18:49.495Z,5.09
2022-11-22T07:21:20.542Z,5.18
2022-11-22T07:23:49.165Z,5.26
2022-11-22T07:26:20.727Z,5.09
2022-11-22T07:28:47.835Z,5.38
2022-11-22T07:31:17.250Z,5.54
2022-11-22T07:33:46.383Z,5.74
2022-11-22T07:36:16.913Z,5.86
2022-11-22T07:38:43.862Z,5.91
2022-11-22T07:41:10.691Z,6.09
2022-11-22T07:43:37.598Z,5.79
2022-11-22T07:46:06.713Z,6.02
2022-11-22T07:48:33.785Z,6.11
2022-11-22T07:51:05.050Z,6.06
2022-11-22T07:53:32.035Z,5.78
2022-11-22T07:56:02.243Z,6.28
2022-11-22T07:58:28.804Z,6.42
2022-11-22T08:00:56.046Z,6.31
2022-11-22T08:03:28.641Z,6.35
2022-11-22T08:06:03.638Z,6.50
2022-11-22T08:08:31.285Z,6.40
2022-11-22T08:10:58.181Z,6.37
2022-11-22T08:13:24.876Z,6.60
2022-11-22T08:15:54.599Z,6.63
2022-11-22T08:18:22.422Z,6.70
2022-11-22T08:20:52.361Z,6.68
2022-11-22T08:23:22.382Z,6.49
2022-11-22T08:25:52.345Z,6.67
2022-11-22T08:28:22.056Z,7.00
2022-11-22T08:30:58.721Z,7.08
2022-11-22T08:33:25.469Z,7.08
2022-11-22T08:35:52.009Z,7.27
2022-11-22T08:38:21.857Z,7.21
2022-11-22T08:40:53.017Z,7.26
2022-11-22T08:43:20.449Z,7.37
2022-11-22T08:45:53.391Z,7.05
2022-11-22T08:48:22.471Z,7.05
2022-11-22T08:50:57.835Z,7.18
2022-11-22T08:53:25.824Z,7.12
2022-11-22T08:55:53.105Z,7.07
2022-11-22T08:58:20.890Z,6.92
2022-11-22T09:00:51.159Z,7.35
2022-11-22T09:03:20.399Z,7.54
2022-11-22T09:08:40.467Z,7.81
2022-11-22T09:11:12.973Z,8.14
2022-11-22T09:13:40.253Z,8.13
2022-11-22T09:16:12.748Z,7.97
2022-11-22T09:18:40.029Z,8.28
2022-11-22T09:21:15.872Z,8.70
2022-11-22T09:23:48.179Z,9.20
2022-11-22T09:26:20.392Z,9.42
2022-11-22T09:28:48.323Z,10.02
2022-11-22T09:31:21.836Z,9.97
2022-11-22T09:33:51.911Z,9.91
2022-11-22T09:36:28.803Z,10.87
2022-11-22T09:38:56.428Z,11.43
2022-11-22T09:41:50.402Z,11.19
2022-11-22T09:44:45.389Z,10.27
2022-11-22T09:47:51.238Z,10.27
2022-11-22T09:50:49.908Z,10.50
2022-11-22T09:53:45.041Z,11.11
2022-11-22T09:56:15.731Z,11.75
2022-11-22T09:58:51.763Z,12.19
2022-11-22T10:01:28.264Z,11.07
2022-11-22T10:04:02.643Z,10.85
2022-11-22T10:06:35.856Z,10.47
2022-11-22T10:09:36.854Z,10.25
2022-11-22T10:12:42.441Z,10.40
2022-11-22T10:15:35.943Z,9.96
2022-11-22T10:18:11.647Z,9.48
2022-11-22T10:20:47.293Z,9.60
2022-11-22T10:23:24.175Z,10.28
2022-11-22T10:26:07.887Z,10.20
2022-11-22T10:28:38.290Z,10.26
2022-11-22T10:31:26.232Z,10.29
2022-11-22T10:34:05.501Z,11.19
2022-11-22T10:36:39.245Z,11.15
2022-11-22T10:39:24.452Z,11.36
2022-11-22T10:42:08.963Z,11.49
2022-11-22T10:44:45.352Z,11.09
2022-11-22T10:47:20.557Z,10.88
2022-11-22T10:50:10.323Z,10.83
2022-11-22T10:53:00.565Z,10.76
2022-11-22T10:55:54.531Z,11.48
2022-11-22T10:58:50.217Z,11.98
2022-11-22T11:01:18.916Z,12.06
2022-11-22T11:03:53.284Z,11.94
2022-11-22T11:06:43.428Z,12.38
2022-11-22T11:12:22.251Z,12.52
2022-11-22T11:14:54.937Z,12.23
2022-11-22T11:17:28.181Z,12.13
2022-11-22T11:19:59.705Z,12.28
2022-11-22T11:22:58.531Z,12.53
2022-11-22T11:25:35.027Z,12.43
2022-11-22T11:28:08.645Z,12.02
2022-11-22T11:30:50.991Z,11.68
2022-11-22T11:33:20.658Z,12.10
2022-11-22T11:35:50.824Z,12.34
2022-11-22T11:38:48.169Z,12.12
2022-11-22T11:41:29.610Z,11.87
2022-11-22T11:43:58.864Z,12.02
2022-11-22T11:46:29.977Z,12.39
2022-11-22T11:49:15.822Z,12.59
2022-11-22T11:51:46.379Z,13.03
2022-11-22T11:54:22.778Z,12.65
2022-11-22T11:56:58.236Z,11.96
2022-11-22T11:59:36.689Z,11.52
2022-11-22T12:02:19.162Z,11.75
2022-11-22T12:05:05.762Z,11.53
2022-11-22T12:07:35.072Z,11.82
2022-11-22T12:10:22.563Z,12.18
2022-11-22T12:13:04.176Z,11.61
2022-11-22T12:16:19.875Z,11.26
2022-11-22T12:18:56.605Z,10.89
2022-11-22T12:21:45.765Z,11.24
2022-11-22T12:25:09.164Z,11.29
2022-11-22T12:27:17.688Z,11.41
2022-11-22T12:29:44.655Z,11.09
2022-11-22T12:32:14.065Z,10.83
2022-11-22T12:34:45.783Z,10.85
2022-11-22T12:37:29.768Z,10.79
2022-11-22T12:40:02.110Z,10.55
2022-11-22T12:42:56.053Z,10.74
2022-11-22T12:45:35.139Z,10.77
2022-11-22T12:48:09.430Z,10.82
2022-11-22T12:50:49.360Z,10.96
2022-11-22T12:53:21.865Z,10.70
2022-11-22T12:55:59.225Z,10.70
2022-11-22T12:58:44.415Z,10.74
2022-11-22T13:01:30.275Z,10.85
2022-11-22T13:04:11.186Z,11.11
2022-11-22T13:06:51.300Z,11.95
2022-11-22T13:09:41.012Z,11.55
2022-11-22T13:12:16.158Z,11.24
2022-11-22T13:14:50.431Z,11.50
2022-11-22T13:17:19.678Z,11.64
2022-11-22T13:20:00.131Z,11.21
2022-11-22T13:22:38.190Z,11.29
2022-11-22T13:25:26.482Z,10.99
2022-11-22T13:27:53.644Z,10.54
2022-11-22T13:30:25.579Z,10.50
2022-11-22T13:32:58.132Z,10.32
2022-11-22T13:35:36.496Z,10.46
2022-11-22T13:38:06.027Z,10.56
2022-11-22T13:40:35.400Z,10.49
2022-11-22T13:43:21.224Z,11.29
2022-11-22T13:45:58.420Z,11.16
2022-11-22T13:48:40.215Z,11.03
2022-11-22T13:51:08.888Z,11.22
2022-11-22T13:53:37.957Z,11.37
2022-11-22T13:56:16.418Z,11.57
2022-11-22T13:58:52.617Z,11.80
2022-11-22T14:01:34.677Z,12.08
2022-11-22T14:04:16.740Z,12.15
2022-11-22T14:06:53.789Z,12.08
2022-11-22T14:09:34.538Z,11.62
2022-11-22T14:12:10.346Z,11.24
2022-11-22T14:15:14.265Z,11.14
2022-11-22T14:17:55.317Z,11.07
2022-11-22T14:20:35.870Z,11.27
2022-11-22T14:23:06.756Z,11.52
2022-11-22T14:25:55.070Z,11.98
2022-11-22T14:28:27.515Z,12.25
2022-11-22T14:30:57.848Z,12.26
2022-11-22T14:33:28.836Z,12.28
2022-11-22T14:36:07.553Z,12.60
2022-11-22T14:38:40.111Z,12.77
2022-11-22T14:41:28.383Z,12.98
2022-11-22T14:44:01.328Z,13.04
2022-11-22T14:46:53.678Z,13.28
2022-11-22T14:49:36.043Z,13.34
2022-11-22T14:52:02.879Z,13.31
2022-11-22T14:54:43.245Z,13.38
2022-11-22T14:57:17.065Z,13.48
2022-11-22T15:00:07.149Z,12.68
2022-11-22T15:02:48.843Z,12.42
2022-11-22T15:09:12.949Z,11.58
2022-11-22T15:09:42.071Z,11.11
2022-11-22T15:12:00.078Z,10.68
2022-11-22T15:14:48.787Z,10.50
2022-11-22T15:57:44.976Z,9.48
2022-11-22T16:00:27.674Z,9.54
2022-11-22T16:02:57.413Z,9.38
2022-11-22T16:06:07.337Z,9.31
2022-11-22T16:08:17.290Z,9.46
2022-11-22T16:10:53.543Z,9.41
2022-11-22T16:13:20.053Z,9.32
2022-11-22T16:16:11.539Z,9.20
2022-11-22T16:18:39.560Z,9.33
2022-11-22T16:21:11.614Z,9.31
2022-11-22T16:23:41.682Z,9.42
2022-11-22T16:26:30.747Z,9.35
2022-11-22T16:29:29.187Z,9.09
2022-11-22T16:32:15.551Z,9.22
2022-11-22T16:34:43.430Z,9.10
2022-11-22T16:37:36.158Z,8.91
2022-11-22T16:40:05.760Z,8.87
2022-11-22T16:42:35.150Z,8.75
2022-11-22T16:45:04.202Z,8.75
2022-11-22T16:47:33.571Z,8.43
2022-11-22T16:50:00.109Z,8.25
2022-11-22T16:52:26.650Z,8.40
2022-11-22T16:54:56.196Z,8.22
2022-11-22T16:57:23.661Z,8.45
2022-11-22T16:59:50.392Z,8.28
2022-11-22T17:02:18.256Z,8.28
2022-11-22T17:04:49.122Z,8.35
2022-11-22T17:07:16.022Z,8.30
2022-11-22T17:09:42.640Z,8.26
2022-11-22T17:12:27.799Z,8.29
2022-11-22T17:14:57.127Z,8.21
2022-11-22T17:17:26.305Z,8.01
2022-11-22T17:19:55.513Z,7.76
2022-11-22T17:22:26.016Z,8.01
2022-11-22T17:24:56.486Z,7.60
2022-11-22T17:27:26.139Z,7.80
2022-11-22T17:29:55.651Z,7.62
2022-11-22T17:32:25.112Z,7.81
2022-11-22T17:34:56.040Z,7.58
2022-11-22T17:37:29.394Z,7.31
2022-11-22T17:39:55.918Z,7.45
2022-11-22T17:42:24.187Z,7.45
2022-11-22T17:44:53.063Z,7.29
2022-11-22T17:47:19.768Z,7.25
2022-11-22T17:49:46.308Z,7.18
2022-11-22T17:52:12.879Z,7.21
2022-11-22T17:54:41.083Z,6.99
2022-11-22T17:57:07.672Z,7.00
2022-11-22T17:59:34.912Z,6.91
2022-11-22T18:02:01.824Z,6.92
2022-11-22T18:04:28.429Z,7.00
2022-11-22T18:06:55.108Z,7.25
2022-11-22T18:09:21.932Z,7.32
2022-11-22T18:11:48.623Z,6.79
2022-11-22T18:14:15.156Z,7.04
2022-11-22T18:16:41.697Z,7.10
2022-11-22T18:19:08.299Z,7.10
2022-11-22T18:21:34.949Z,7.15
2022-11-22T18:24:01.626Z,6.75
2022-11-22T18:26:39.268Z,6.68
2022-11-22T18:31:56.765Z,6.73
2022-11-22T18:34:27.491Z,6.87
2022-11-22T18:37:00.296Z,6.84
2022-11-22T18:39:29.135Z,6.59
2022-11-22T18:41:55.878Z,6.39
2022-11-22T18:44:26.539Z,6.43
2022-11-22T18:46:55.903Z,6.52
2022-11-22T18:49:24.418Z,6.58
2022-11-22T18:51:53.462Z,6.46
2022-11-22T18:54:25.883Z,6.59
2022-11-22T18:56:56.311Z,6.60
2022-11-22T18:59:26.067Z,6.69
2022-11-22T19:01:55.042Z,6.89
2022-11-22T19:04:23.975Z,6.93
2022-11-22T19:06:51.651Z,6.81
2022-11-22T19:09:18.795Z,6.58
2022-11-22T19:11:45.301Z,6.84
2022-11-22T19:14:11.876Z,7.03
2022-11-22T19:16:38.428Z,6.88
2022-11-22T19:19:04.954Z,6.73
2022-11-22T19:21:31.538Z,6.45
2022-11-22T19:23:58.153Z,6.28
2022-11-22T19:26:28.572Z,6.26
2022-11-22T19:28:59.729Z,6.38
2022-11-22T19:31:29.147Z,6.37
2022-11-22T19:33:59.449Z,6.39
2022-11-22T19:36:34.056Z,6.37
2022-11-22T19:39:05.640Z,6.45
2022-11-22T19:41:32.651Z,6.47
2022-11-22T19:43:59.723Z,6.49
2022-11-22T19:46:27.098Z,6.53
2022-11-22T19:48:59.095Z,6.39
2022-11-22T19:51:30.951Z,6.40
2022-11-22T19:54:00.083Z,6.61
2022-11-22T19:56:37.979Z,6.52
2022-11-22T19:59:07.159Z,6.48
2022-11-22T20:01:35.294Z,6.36
2022-11-22T20:04:04.928Z,6.24
2022-11-22T20:06:32.956Z,6.11
2022-11-22T20:09:11.372Z,6.14
2022-11-22T20:11:43.904Z,5.99
2022-11-22T20:14:10.643Z,6.16
2022-11-22T20:19:59.737Z,5.91
2022-11-22T20:22:28.541Z,6.18
2022-11-22T20:24:55.028Z,6.11
2022-11-22T20:27:24.702Z,5.84
2022-11-22T20:29:51.497Z,5.75
2022-11-22T20:32:18.241Z,6.04
2022-11-22T20:34:44.767Z,6.07
2022-11-22T20:37:11.331Z,6.16
2022-11-22T20:39:37.971Z,6.31
2022-11-22T20:42:32.420Z,6.34
2022-11-22T20:44:51.488Z,6.31
2022-11-22T20:47:18.049Z,6.08
2022-11-22T20:49:45.736Z,6.18
2022-11-22T20:52:12.398Z,6.14
2022-11-22T20:54:38.881Z,6.08
2022-11-22T20:57:05.412Z,5.81
2022-11-22T20:59:32.717Z,5.93
2022-11-22T21:02:06.360Z,5.82
2022-11-22T21:04:35.466Z,5.97
2022-11-22T21:07:01.960Z,6.09
2022-11-22T21:09:30.931Z,6.05
2022-11-22T21:11:59.830Z,5.92
2022-11-22T21:14:26.409Z,6.07
2022-11-22T21:16:52.899Z,6.09
2022-11-22T21:19:19.439Z,6.17
2022-11-22T21:21:45.923Z,6.05
2022-11-22T21:24:13.650Z,6.00
2022-11-22T21:26:40.715Z,5.93
2022-11-22T21:29:15.959Z,5.98
2022-11-22T21:31:42.941Z,5.75
2022-11-22T21:34:09.565Z,5.78
2022-11-22T21:36:36.056Z,5.80
2022-11-22T21:39:02.549Z,5.67
2022-11-22T21:41:39.710Z,5.66
2022-11-22T21:44:07.345Z,5.66
2022-11-22T21:46:33.920Z,5.75
2022-11-22T21:49:03.164Z,5.81
2022-11-22T21:51:32.589Z,5.97
2022-11-22T21:54:02.563Z,6.02
2022-11-22T21:56:32.244Z,5.99
2022-11-22T21:59:02.160Z,6.12
2022-11-22T22:01:32.210Z,6.01
2022-11-22T22:04:02.616Z,5.95
2022-11-22T22:06:32.560Z,5.79
2022-11-22T22:09:02.869Z,5.70
2022-11-22T22:11:30.914Z,5.88
2022-11-22T22:14:01.633Z,5.91
2022-11-22T22:16:29.476Z,5.89
2022-11-22T22:18:56.067Z,5.67
2022-11-22T22:21:23.028Z,5.93
2022-11-22T22:23:49.782Z,5.85
2022-11-22T22:26:17.525Z,5.93
2022-11-22T22:28:45.478Z,5.71
2022-11-22T22:31:21.963Z,5.93
2022-11-22T22:33:56.695Z,5.90
2022-11-22T22:36:25.371Z,5.92
2022-11-22T22:38:52.202Z,5.95
2022-11-22T22:41:19.002Z,5.95
2022-11-22T22:43:47.696Z,5.92
2022-11-22T22:46:27.162Z,6.06
2022-11-22T22:48:57.244Z,5.96
2022-11-22T22:51:31.828Z,6.10
2022-11-22T22:54:01.873Z,6.12
2022-11-22T22:56:33.567Z,6.19
2022-11-22T22:59:05.041Z,6.15
2022-11-22T23:01:32.677Z,6.13
2022-11-22T23:04:02.559Z,6.29
2022-11-22T23:06:35.701Z,6.23
2022-11-22T23:09:06.091Z,6.22
2022-11-22T23:11:54.015Z,6.18
2022-11-22T23:14:23.019Z,6.31
2022-11-22T23:16:54.503Z,6.44
2022-11-22T23:19:24.585Z,6.28
2022-11-22T23:21:51.102Z,6.41
2022-11-22T23:24:17.649Z,6.50
2022-11-22T23:26:44.244Z,6.63
2022-11-22T23:29:10.986Z,6.65
2022-11-22T23:31:37.502Z,6.64
2022-11-22T23:34:07.138Z,6.49
2022-11-22T23:36:40.707Z,6.73
2022-11-22T23:39:08.045Z,6.73
2022-11-22T23:41:37.967Z,6.79
2022-11-22T23:44:07.755Z,6.95
2022-11-22T23:46:35.273Z,6.81
2022-11-22T23:49:06.189Z,6.90
2022-11-22T23:51:37.012Z,6.94
2022-11-22T23:54:06.036Z,6.92
2022-11-22T23:56:37.212Z,6.81
2022-11-22T23:59:06.040Z,7.13
